sensor_id;sensor_type;location;lat;lon;timestamp;P1;durP1;ratioP1;P2;durP2;ratioP2
17773;SDS011;9011;33.236;-97.118;2023-06-26T00:01:11;5.93;;;2.63;;
17773;SDS011;9011;33.236;-97.118;2023-06-26T00:03:39;6.05;;;2.65;;
17773;SDS011;9011;33.236;-97.118;2023-06-26T00:06:07;8.00;;;3.20;;
17773;SDS011;9011;33.236;-97.118;2023-06-26T00:08:36;6.50;;;2.75;;
17773;SDS011;9011;33.236;-97.118;2023-06-26T00:11:04;6.40;;;2.92;;
17773;SDS011;9011;33.236;-97.118;2023-06-26T00:13:35;7.38;;;2.78;;
17773;SDS011;9011;33.236;-97.118;2023-06-26T00:16:03;4.18;;;2.58;;
17773;SDS011;9011;33.236;-97.118;2023-06-26T00:18:31;4.05;;;2.22;;
17773;SDS011;9011;33.236;-97.118;2023-06-26T00:21:00;7.55;;;3.13;;
17773;SDS011;9011;33.236;-97.118;2023-06-26T00:23:28;7.75;;;2.80;;
17773;SDS011;9011;33.236;-97.118;2023-06-26T00:25:58;5.82;;;2.72;;
17773;SDS011;9011;33.236;-97.118;2023-06-26T00:28:26;4.22;;;3.00;;
17773;SDS011;9011;33.236;-97.118;2023-06-26T00:30:56;5.00;;;2.65;;
17773;SDS011;9011;33.236;-97.118;2023-06-26T00:33:25;4.75;;;2.60;;
17773;SDS011;9011;33.236;-97.118;2023-06-26T00:35:53;7.22;;;2.83;;
17773;SDS011;9011;33.236;-97.118;2023-06-26T00:38:21;4.80;;;2.72;;
17773;SDS011;9011;33.236;-97.118;2023-06-26T00:40:50;4.47;;;2.90;;
17773;SDS011;9011;33.236;-97.118;2023-06-26T00:43:20;4.80;;;2.50;;
17773;SDS011;9011;33.236;-97.118;2023-06-26T00:45:48;6.07;;;2.70;;
17773;SDS011;9011;33.236;-97.118;2023-06-26T00:48:18;6.47;;;2.72;;
17773;SDS011;9011;33.236;-97.118;2023-06-26T00:50:47;5.50;;;2.75;;
17773;SDS011;9011;33.236;-97.118;2023-06-26T00:53:15;4.55;;;3.15;;
17773;SDS011;9011;33.236;-97.118;2023-06-26T00:55:43;4.63;;;2.33;;
17773;SDS011;9011;33.236;-97.118;2023-06-26T00:58:12;5.00;;;2.72;;
17773;SDS011;9011;33.236;-97.118;2023-06-26T01:00:41;6.90;;;2.70;;
17773;SDS011;9011;33.236;-97.118;2023-06-26T01:03:11;8.23;;;2.83;;
17773;SDS011;9011;33.236;-97.118;2023-06-26T01:05:41;4.97;;;2.72;;
17773;SDS011;9011;33.236;-97.118;2023-06-26T01:08:11;6.75;;;3.15;;
17773;SDS011;9011;33.236;-97.118;2023-06-26T01:10:40;9.80;;;2.78;;
17773;SDS011;9011;33.236;-97.118;2023-06-26T01:13:09;4.05;;;2.58;;
17773;SDS011;9011;33.236;-97.118;2023-06-26T01:15:38;2.90;;;2.60;;
17773;SDS011;9011;33.236;-97.118;2023-06-26T01:18:07;5.88;;;2.63;;
17773;SDS011;9011;33.236;-97.118;2023-06-26T01:20:36;4.88;;;2.63;;
17773;SDS011;9011;33.236;-97.118;2023-06-26T01:23:12;5.70;;;3.00;;
17773;SDS011;9011;33.236;-97.118;2023-06-26T01:25:55;4.43;;;2.78;;
17773;SDS011;9011;33.236;-97.118;2023-06-26T01:28:34;5.03;;;2.65;;
17773;SDS011;9011;33.236;-97.118;2023-06-26T01:31:04;4.22;;;2.72;;
17773;SDS011;9011;33.236;-97.118;2023-06-26T01:33:34;5.10;;;2.75;;
17773;SDS011;9011;33.236;-97.118;2023-06-26T01:36:03;5.88;;;2.22;;
17773;SDS011;9011;33.236;-97.118;2023-06-26T01:38:32;2.67;;;2.15;;
17773;SDS011;9011;33.236;-97.118;2023-06-26T01:41:01;8.02;;;3.00;;
17773;SDS011;9011;33.236;-97.118;2023-06-26T01:43:35;5.93;;;2.85;;
17773;SDS011;9011;33.236;-97.118;2023-06-26T01:46:09;5.93;;;3.28;;
17773;SDS011;9011;33.236;-97.118;2023-06-26T01:48:45;10.40;;;2.88;;
17773;SDS011;9011;33.236;-97.118;2023-06-26T01:51:20;10.48;;;3.13;;
17773;SDS011;9011;33.236;-97.118;2023-06-26T01:53:54;5.43;;;2.55;;
17773;SDS011;9011;33.236;-97.118;2023-06-26T01:56:24;7.05;;;2.83;;
17773;SDS011;9011;33.236;-97.118;2023-06-26T01:58:56;5.65;;;2.92;;
17773;SDS011;9011;33.236;-97.118;2023-06-26T02:01:24;6.20;;;2.85;;
17773;SDS011;9011;33.236;-97.118;2023-06-26T02:03:53;4.80;;;2.50;;
17773;SDS011;9011;33.236;-97.118;2023-06-26T02:06:21;6.32;;;3.00;;
17773;SDS011;9011;33.236;-97.118;2023-06-26T02:08:50;6.40;;;2.90;;
17773;SDS011;9011;33.236;-97.118;2023-06-26T02:11:22;5.55;;;3.05;;
17773;SDS011;9011;33.236;-97.118;2023-06-26T02:13:50;5.10;;;2.60;;
17773;SDS011;9011;33.236;-97.118;2023-06-26T02:16:20;8.00;;;2.80;;
17773;SDS011;9011;33.236;-97.118;2023-06-26T02:18:48;6.30;;;2.20;;
17773;SDS011;9011;33.236;-97.118;2023-06-26T02:21:17;5.38;;;2.75;;
17773;SDS011;9011;33.236;-97.118;2023-06-26T02:23:45;5.78;;;2.65;;
17773;SDS011;9011;33.236;-97.118;2023-06-26T02:26:13;6.30;;;2.90;;
17773;SDS011;9011;33.236;-97.118;2023-06-26T02:28:42;4.03;;;2.80;;
17773;SDS011;9011;33.236;-97.118;2023-06-26T02:31:10;5.07;;;2.72;;
17773;SDS011;9011;33.236;-97.118;2023-06-26T02:33:40;3.55;;;3.08;;
17773;SDS011;9011;33.236;-97.118;2023-06-26T02:36:10;3.63;;;2.55;;
17773;SDS011;9011;33.236;-97.118;2023-06-26T02:38:39;6.63;;;2.83;;
17773;SDS011;9011;33.236;-97.118;2023-06-26T02:41:07;5.93;;;3.03;;
17773;SDS011;9011;33.236;-97.118;2023-06-26T02:43:35;7.65;;;3.53;;
17773;SDS011;9011;33.236;-97.118;2023-06-26T02:46:04;5.50;;;3.05;;
17773;SDS011;9011;33.236;-97.118;2023-06-26T02:48:32;6.00;;;3.20;;
17773;SDS011;9011;33.236;-97.118;2023-06-26T02:51:02;8.15;;;3.42;;
17773;SDS011;9011;33.236;-97.118;2023-06-26T02:53:30;5.15;;;2.80;;
17773;SDS011;9011;33.236;-97.118;2023-06-26T02:55:59;6.00;;;3.15;;
17773;SDS011;9011;33.236;-97.118;2023-06-26T02:58:27;5.50;;;2.90;;
17773;SDS011;9011;33.236;-97.118;2023-06-26T03:00:56;5.18;;;3.17;;
17773;SDS011;9011;33.236;-97.118;2023-06-26T03:03:24;10.13;;;3.30;;
17773;SDS011;9011;33.236;-97.118;2023-06-26T03:05:52;5.82;;;3.40;;
17773;SDS011;9011;33.236;-97.118;2023-06-26T03:08:22;5.03;;;3.03;;
17773;SDS011;9011;33.236;-97.118;2023-06-26T03:10:51;8.45;;;3.28;;
17773;SDS011;9011;33.236;-97.118;2023-06-26T03:13:19;6.65;;;3.28;;
17773;SDS011;9011;33.236;-97.118;2023-06-26T03:15:47;6.00;;;3.13;;
17773;SDS011;9011;33.236;-97.118;2023-06-26T03:18:19;6.05;;;3.05;;
17773;SDS011;9011;33.236;-97.118;2023-06-26T03:20:47;10.88;;;3.20;;
17773;SDS011;9011;33.236;-97.118;2023-06-26T03:23:16;4.90;;;2.80;;
17773;SDS011;9011;33.236;-97.118;2023-06-26T03:25:46;5.65;;;3.13;;
17773;SDS011;9011;33.236;-97.118;2023-06-26T03:28:15;6.30;;;3.00;;
17773;SDS011;9011;33.236;-97.118;2023-06-26T03:30:44;6.82;;;3.65;;
17773;SDS011;9011;33.236;-97.118;2023-06-26T03:33:13;5.43;;;2.70;;
17773;SDS011;9011;33.236;-97.118;2023-06-26T03:35:41;5.15;;;3.20;;
17773;SDS011;9011;33.236;-97.118;2023-06-26T03:38:10;5.85;;;3.40;;
17773;SDS011;9011;33.236;-97.118;2023-06-26T03:40:38;4.95;;;2.88;;
17773;SDS011;9011;33.236;-97.118;2023-06-26T03:43:08;7.13;;;3.08;;
17773;SDS011;9011;33.236;-97.118;2023-06-26T03:45:37;10.27;;;3.35;;
17773;SDS011;9011;33.236;-97.118;2023-06-26T03:48:05;6.85;;;3.13;;
17773;SDS011;9011;33.236;-97.118;2023-06-26T03:50:33;5.95;;;3.53;;
17773;SDS011;9011;33.236;-97.118;2023-06-26T03:53:02;5.70;;;3.10;;
17773;SDS011;9011;33.236;-97.118;2023-06-26T03:55:30;6.90;;;3.30;;
17773;SDS011;9011;33.236;-97.118;2023-06-26T03:57:59;5.75;;;2.95;;
17773;SDS011;9011;33.236;-97.118;2023-06-26T04:00:29;6.55;;;3.20;;
17773;SDS011;9011;33.236;-97.118;2023-06-26T04:02:59;10.45;;;3.28;;
17773;SDS011;9011;33.236;-97.118;2023-06-26T04:05:28;6.63;;;3.13;;
17773;SDS011;9011;33.236;-97.118;2023-06-26T04:07:56;7.78;;;3.75;;
17773;SDS011;9011;33.236;-97.118;2023-06-26T04:10:25;7.07;;;3.85;;
17773;SDS011;9011;33.236;-97.118;2023-06-26T04:12:53;6.53;;;4.05;;
17773;SDS011;9011;33.236;-97.118;2023-06-26T04:15:22;6.85;;;3.28;;
17773;SDS011;9011;33.236;-97.118;2023-06-26T04:17:52;4.03;;;3.28;;
17773;SDS011;9011;33.236;-97.118;2023-06-26T04:20:20;5.82;;;3.05;;
17773;SDS011;9011;33.236;-97.118;2023-06-26T04:22:49;4.93;;;2.90;;
17773;SDS011;9011;33.236;-97.118;2023-06-26T04:25:17;5.68;;;3.10;;
17773;SDS011;9011;33.236;-97.118;2023-06-26T04:27:45;6.78;;;3.33;;
17773;SDS011;9011;33.236;-97.118;2023-06-26T04:30:14;4.97;;;3.10;;
17773;SDS011;9011;33.236;-97.118;2023-06-26T04:32:43;7.18;;;3.35;;
17773;SDS011;9011;33.236;-97.118;2023-06-26T04:35:13;4.13;;;3.20;;
17773;SDS011;9011;33.236;-97.118;2023-06-26T04:37:41;9.95;;;3.08;;
17773;SDS011;9011;33.236;-97.118;2023-06-26T04:40:09;3.65;;;2.83;;
17773;SDS011;9011;33.236;-97.118;2023-06-26T04:42:38;4.82;;;3.03;;
17773;SDS011;9011;33.236;-97.118;2023-06-26T04:45:07;6.85;;;3.28;;
17773;SDS011;9011;33.236;-97.118;2023-06-26T04:47:35;5.00;;;3.17;;
17773;SDS011;9011;33.236;-97.118;2023-06-26T04:50:05;7.05;;;3.60;;
17773;SDS011;9011;33.236;-97.118;2023-06-26T04:52:36;5.85;;;3.03;;
17773;SDS011;9011;33.236;-97.118;2023-06-26T04:55:04;5.18;;;3.08;;
17773;SDS011;9011;33.236;-97.118;2023-06-26T04:57:33;3.50;;;2.75;;
17773;SDS011;9011;33.236;-97.118;2023-06-26T05:00:02;4.25;;;2.70;;
17773;SDS011;9011;33.236;-97.118;2023-06-26T05:02:35;7.35;;;3.60;;
17773;SDS011;9011;33.236;-97.118;2023-06-26T05:05:04;4.68;;;3.15;;
17773;SDS011;9011;33.236;-97.118;2023-06-26T05:07:32;5.75;;;3.28;;
17773;SDS011;9011;33.236;-97.118;2023-06-26T05:10:02;4.63;;;2.50;;
17773;SDS011;9011;33.236;-97.118;2023-06-26T05:12:31;4.63;;;3.20;;
17773;SDS011;9011;33.236;-97.118;2023-06-26T05:15:00;6.13;;;2.88;;
17773;SDS011;9011;33.236;-97.118;2023-06-26T05:17:28;7.13;;;2.97;;
17773;SDS011;9011;33.236;-97.118;2023-06-26T05:19:57;5.45;;;3.08;;
17773;SDS011;9011;33.236;-97.118;2023-06-26T05:22:25;4.63;;;2.97;;
17773;SDS011;9011;33.236;-97.118;2023-06-26T05:24:54;4.88;;;3.03;;
17773;SDS011;9011;33.236;-97.118;2023-06-26T05:27:26;4.28;;;3.20;;
17773;SDS011;9011;33.236;-97.118;2023-06-26T05:29:55;5.03;;;3.42;;
17773;SDS011;9011;33.236;-97.118;2023-06-26T05:32:24;4.50;;;3.35;;
17773;SDS011;9011;33.236;-97.118;2023-06-26T05:34:53;5.97;;;3.10;;
17773;SDS011;9011;33.236;-97.118;2023-06-26T05:37:23;5.95;;;3.38;;
17773;SDS011;9011;33.236;-97.118;2023-06-26T05:39:53;5.38;;;2.88;;
17773;SDS011;9011;33.236;-97.118;2023-06-26T05:42:22;5.30;;;3.35;;
17773;SDS011;9011;33.236;-97.118;2023-06-26T05:44:53;3.63;;;3.08;;
17773;SDS011;9011;33.236;-97.118;2023-06-26T05:47:21;5.40;;;3.17;;
17773;SDS011;9011;33.236;-97.118;2023-06-26T05:49:49;3.80;;;2.80;;
17773;SDS011;9011;33.236;-97.118;2023-06-26T05:52:18;5.45;;;3.17;;
17773;SDS011;9011;33.236;-97.118;2023-06-26T05:54:47;6.65;;;3.58;;
17773;SDS011;9011;33.236;-97.118;2023-06-26T05:57:16;5.20;;;3.13;;
17773;SDS011;9011;33.236;-97.118;2023-06-26T05:59:45;6.05;;;3.50;;
17773;SDS011;9011;33.236;-97.118;2023-06-26T06:02:16;7.57;;;3.55;;
17773;SDS011;9011;33.236;-97.118;2023-06-26T06:04:44;5.43;;;3.53;;
17773;SDS011;9011;33.236;-97.118;2023-06-26T06:07:13;5.60;;;3.60;;
17773;SDS011;9011;33.236;-97.118;2023-06-26T06:09:41;5.68;;;3.42;;
17773;SDS011;9011;33.236;-97.118;2023-06-26T06:12:10;4.18;;;3.72;;
17773;SDS011;9011;33.236;-97.118;2023-06-26T06:14:38;5.53;;;3.38;;
17773;SDS011;9011;33.236;-97.118;2023-06-26T06:17:07;4.47;;;3.60;;
17773;SDS011;9011;33.236;-97.118;2023-06-26T06:19:37;4.03;;;3.42;;
17773;SDS011;9011;33.236;-97.118;2023-06-26T06:22:06;3.50;;;3.00;;
17773;SDS011;9011;33.236;-97.118;2023-06-26T06:24:34;4.72;;;3.45;;
17773;SDS011;9011;33.236;-97.118;2023-06-26T06:27:03;4.80;;;3.47;;
17773;SDS011;9011;33.236;-97.118;2023-06-26T06:29:31;5.38;;;3.63;;
17773;SDS011;9011;33.236;-97.118;2023-06-26T06:31:59;4.50;;;3.65;;
17773;SDS011;9011;33.236;-97.118;2023-06-26T06:34:28;5.25;;;3.60;;
17773;SDS011;9011;33.236;-97.118;2023-06-26T06:36:58;6.47;;;3.83;;
17773;SDS011;9011;33.236;-97.118;2023-06-26T06:39:27;6.38;;;3.42;;
17773;SDS011;9011;33.236;-97.118;2023-06-26T06:41:55;4.90;;;4.00;;
17773;SDS011;9011;33.236;-97.118;2023-06-26T06:44:23;6.55;;;3.88;;
17773;SDS011;9011;33.236;-97.118;2023-06-26T06:46:52;4.65;;;3.10;;
17773;SDS011;9011;33.236;-97.118;2023-06-26T06:49:20;5.50;;;3.63;;
17773;SDS011;9011;33.236;-97.118;2023-06-26T06:51:48;5.70;;;3.60;;
17773;SDS011;9011;33.236;-97.118;2023-06-26T06:54:18;6.20;;;3.95;;
17773;SDS011;9011;33.236;-97.118;2023-06-26T06:56:47;6.07;;;3.83;;
17773;SDS011;9011;33.236;-97.118;2023-06-26T06:59:15;3.90;;;3.50;;
17773;SDS011;9011;33.236;-97.118;2023-06-26T07:01:43;5.10;;;3.47;;
17773;SDS011;9011;33.236;-97.118;2023-06-26T07:04:11;5.60;;;3.88;;
17773;SDS011;9011;33.236;-97.118;2023-06-26T07:06:40;5.82;;;3.80;;
17773;SDS011;9011;33.236;-97.118;2023-06-26T07:09:08;7.53;;;3.88;;
17773;SDS011;9011;33.236;-97.118;2023-06-26T07:11:38;7.20;;;3.55;;
17773;SDS011;9011;33.236;-97.118;2023-06-26T07:14:07;5.10;;;3.42;;
17773;SDS011;9011;33.236;-97.118;2023-06-26T07:16:35;4.53;;;3.95;;
17773;SDS011;9011;33.236;-97.118;2023-06-26T07:19:03;4.47;;;3.85;;
17773;SDS011;9011;33.236;-97.118;2023-06-26T07:21:32;5.07;;;3.78;;
17773;SDS011;9011;33.236;-97.118;2023-06-26T07:24:00;7.15;;;3.75;;
17773;SDS011;9011;33.236;-97.118;2023-06-26T07:26:28;5.20;;;3.80;;
17773;SDS011;9011;33.236;-97.118;2023-06-26T07:28:58;7.57;;;4.32;;
17773;SDS011;9011;33.236;-97.118;2023-06-26T07:31:26;5.63;;;3.83;;
17773;SDS011;9011;33.236;-97.118;2023-06-26T07:33:55;6.30;;;3.85;;
17773;SDS011;9011;33.236;-97.118;2023-06-26T07:36:23;6.13;;;4.00;;
17773;SDS011;9011;33.236;-97.118;2023-06-26T07:38:52;5.70;;;4.05;;
17773;SDS011;9011;33.236;-97.118;2023-06-26T07:41:20;7.25;;;4.13;;
17773;SDS011;9011;33.236;-97.118;2023-06-26T07:43:48;4.75;;;3.85;;
17773;SDS011;9011;33.236;-97.118;2023-06-26T07:46:18;6.07;;;3.85;;
17773;SDS011;9011;33.236;-97.118;2023-06-26T07:48:46;6.80;;;4.28;;
17773;SDS011;9011;33.236;-97.118;2023-06-26T07:51:15;7.15;;;4.07;;
17773;SDS011;9011;33.236;-97.118;2023-06-26T07:53:43;6.22;;;3.95;;
17773;SDS011;9011;33.236;-97.118;2023-06-26T07:56:11;5.78;;;4.00;;
17773;SDS011;9011;33.236;-97.118;2023-06-26T07:58:40;6.40;;;4.30;;
17773;SDS011;9011;33.236;-97.118;2023-06-26T08:01:08;9.27;;;4.68;;
17773;SDS011;9011;33.236;-97.118;2023-06-26T08:03:38;6.55;;;4.45;;
17773;SDS011;9011;33.236;-97.118;2023-06-26T08:06:07;9.27;;;4.10;;
17773;SDS011;9011;33.236;-97.118;2023-06-26T08:08:35;5.55;;;4.20;;
17773;SDS011;9011;33.236;-97.118;2023-06-26T08:11:03;7.25;;;4.57;;
17773;SDS011;9011;33.236;-97.118;2023-06-26T08:13:32;9.07;;;4.28;;
17773;SDS011;9011;33.236;-97.118;2023-06-26T08:16:00;5.78;;;3.83;;
17773;SDS011;9011;33.236;-97.118;2023-06-26T08:18:28;6.57;;;4.05;;
17773;SDS011;9011;33.236;-97.118;2023-06-26T08:20:58;6.38;;;4.30;;
17773;SDS011;9011;33.236;-97.118;2023-06-26T08:23:26;7.90;;;4.25;;
17773;SDS011;9011;33.236;-97.118;2023-06-26T08:25:55;6.43;;;4.45;;
17773;SDS011;9011;33.236;-97.118;2023-06-26T08:28:25;6.47;;;3.95;;
17773;SDS011;9011;33.236;-97.118;2023-06-26T08:30:53;6.75;;;4.10;;
17773;SDS011;9011;33.236;-97.118;2023-06-26T08:33:21;5.55;;;3.95;;
17773;SDS011;9011;33.236;-97.118;2023-06-26T08:35:50;7.45;;;4.28;;
17773;SDS011;9011;33.236;-97.118;2023-06-26T08:38:20;5.47;;;4.60;;
17773;SDS011;9011;33.236;-97.118;2023-06-26T08:40:48;6.15;;;4.45;;
17773;SDS011;9011;33.236;-97.118;2023-06-26T08:43:16;7.95;;;4.43;;
17773;SDS011;9011;33.236;-97.118;2023-06-26T08:45:45;7.38;;;4.63;;
17773;SDS011;9011;33.236;-97.118;2023-06-26T08:48:16;6.72;;;4.25;;
17773;SDS011;9011;33.236;-97.118;2023-06-26T08:50:45;9.02;;;4.68;;
17773;SDS011;9011;33.236;-97.118;2023-06-26T08:53:18;9.30;;;5.50;;
17773;SDS011;9011;33.236;-97.118;2023-06-26T08:55:55;4.97;;;4.45;;
17773;SDS011;9011;33.236;-97.118;2023-06-26T08:58:25;10.25;;;4.97;;
17773;SDS011;9011;33.236;-97.118;2023-06-26T09:00:53;5.65;;;4.53;;
17773;SDS011;9011;33.236;-97.118;2023-06-26T09:03:23;8.07;;;4.95;;
17773;SDS011;9011;33.236;-97.118;2023-06-26T09:05:52;5.45;;;4.15;;
17773;SDS011;9011;33.236;-97.118;2023-06-26T09:08:22;6.20;;;4.28;;
17773;SDS011;9011;33.236;-97.118;2023-06-26T09:10:50;9.40;;;5.05;;
17773;SDS011;9011;33.236;-97.118;2023-06-26T09:13:19;8.00;;;4.50;;
17773;SDS011;9011;33.236;-97.118;2023-06-26T09:15:48;9.10;;;4.65;;
17773;SDS011;9011;33.236;-97.118;2023-06-26T09:18:17;7.50;;;4.53;;
17773;SDS011;9011;33.236;-97.118;2023-06-26T09:20:46;6.47;;;4.68;;
17773;SDS011;9011;33.236;-97.118;2023-06-26T09:23:15;13.00;;;5.88;;
17773;SDS011;9011;33.236;-97.118;2023-06-26T09:25:46;7.60;;;4.75;;
17773;SDS011;9011;33.236;-97.118;2023-06-26T09:28:15;11.88;;;4.55;;
17773;SDS011;9011;33.236;-97.118;2023-06-26T09:30:44;8.95;;;4.55;;
17773;SDS011;9011;33.236;-97.118;2023-06-26T09:33:13;5.78;;;4.70;;
17773;SDS011;9011;33.236;-97.118;2023-06-26T09:35:42;8.82;;;5.15;;
17773;SDS011;9011;33.236;-97.118;2023-06-26T09:38:11;9.48;;;4.93;;
17773;SDS011;9011;33.236;-97.118;2023-06-26T09:40:40;7.40;;;4.63;;
17773;SDS011;9011;33.236;-97.118;2023-06-26T09:43:13;8.65;;;4.82;;
17773;SDS011;9011;33.236;-97.118;2023-06-26T09:45:41;8.10;;;5.05;;
17773;SDS011;9011;33.236;-97.118;2023-06-26T09:48:10;7.57;;;5.10;;
17773;SDS011;9011;33.236;-97.118;2023-06-26T09:50:42;11.45;;;5.88;;
17773;SDS011;9011;33.236;-97.118;2023-06-26T09:53:11;8.35;;;4.80;;
17773;SDS011;9011;33.236;-97.118;2023-06-26T09:55:40;9.45;;;5.40;;
17773;SDS011;9011;33.236;-97.118;2023-06-26T09:58:12;7.25;;;4.93;;
17773;SDS011;9011;33.236;-97.118;2023-06-26T10:00:40;5.80;;;4.63;;
17773;SDS011;9011;33.236;-97.118;2023-06-26T10:03:10;7.65;;;5.25;;
17773;SDS011;9011;33.236;-97.118;2023-06-26T10:05:38;8.68;;;5.50;;
17773;SDS011;9011;33.236;-97.118;2023-06-26T10:08:08;7.70;;;5.20;;
17773;SDS011;9011;33.236;-97.118;2023-06-26T10:10:39;10.60;;;4.90;;
17773;SDS011;9011;33.236;-97.118;2023-06-26T10:13:11;7.15;;;5.47;;
17773;SDS011;9011;33.236;-97.118;2023-06-26T10:15:52;6.10;;;5.10;;
17773;SDS011;9011;33.236;-97.118;2023-06-26T10:18:22;7.75;;;5.20;;
17773;SDS011;9011;33.236;-97.118;2023-06-26T10:20:53;9.02;;;5.03;;
17773;SDS011;9011;33.236;-97.118;2023-06-26T10:23:25;8.82;;;5.13;;
17773;SDS011;9011;33.236;-97.118;2023-06-26T10:25:55;10.30;;;5.32;;
17773;SDS011;9011;33.236;-97.118;2023-06-26T10:28:29;6.88;;;4.68;;
17773;SDS011;9011;33.236;-97.118;2023-06-26T10:31:00;7.70;;;5.55;;
17773;SDS011;9011;33.236;-97.118;2023-06-26T10:33:31;8.65;;;5.70;;
17773;SDS011;9011;33.236;-97.118;2023-06-26T10:36:13;9.35;;;5.70;;
17773;SDS011;9011;33.236;-97.118;2023-06-26T10:38:48;9.20;;;5.35;;
17773;SDS011;9011;33.236;-97.118;2023-06-26T10:41:20;9.77;;;5.75;;
17773;SDS011;9011;33.236;-97.118;2023-06-26T10:43:51;7.28;;;5.15;;
17773;SDS011;9011;33.236;-97.118;2023-06-26T10:46:33;11.77;;;5.75;;
17773;SDS011;9011;33.236;-97.118;2023-06-26T10:49:15;11.43;;;5.90;;
17773;SDS011;9011;33.236;-97.118;2023-06-26T10:51:47;7.50;;;5.45;;
17773;SDS011;9011;33.236;-97.118;2023-06-26T10:54:16;7.65;;;5.45;;
17773;SDS011;9011;33.236;-97.118;2023-06-26T10:56:46;7.32;;;5.55;;
17773;SDS011;9011;33.236;-97.118;2023-06-26T10:59:18;6.68;;;4.90;;
17773;SDS011;9011;33.236;-97.118;2023-06-26T11:01:54;10.73;;;5.35;;
17773;SDS011;9011;33.236;-97.118;2023-06-26T11:04:36;9.65;;;5.53;;
17773;SDS011;9011;33.236;-97.118;2023-06-26T11:07:15;10.57;;;5.80;;
17773;SDS011;9011;33.236;-97.118;2023-06-26T11:09:55;9.45;;;5.93;;
17773;SDS011;9011;33.236;-97.118;2023-06-26T11:12:36;11.02;;;6.40;;
17773;SDS011;9011;33.236;-97.118;2023-06-26T11:15:09;16.42;;;6.25;;
17773;SDS011;9011;33.236;-97.118;2023-06-26T11:17:38;12.77;;;6.38;;
17773;SDS011;9011;33.236;-97.118;2023-06-26T11:20:08;11.68;;;6.03;;
17773;SDS011;9011;33.236;-97.118;2023-06-26T11:22:40;12.52;;;6.30;;
17773;SDS011;9011;33.236;-97.118;2023-06-26T11:25:09;16.88;;;6.38;;
17773;SDS011;9011;33.236;-97.118;2023-06-26T11:27:38;9.02;;;6.15;;
17773;SDS011;9011;33.236;-97.118;2023-06-26T11:30:09;9.18;;;5.22;;
17773;SDS011;9011;33.236;-97.118;2023-06-26T11:32:40;6.13;;;5.30;;
17773;SDS011;9011;33.236;-97.118;2023-06-26T11:35:09;6.47;;;5.25;;
17773;SDS011;9011;33.236;-97.118;2023-06-26T11:37:38;7.20;;;5.28;;
17773;SDS011;9011;33.236;-97.118;2023-06-26T11:42:57;8.70;;;4.63;;
17773;SDS011;9011;33.236;-97.118;2023-06-26T11:45:32;8.50;;;5.43;;
17773;SDS011;9011;33.236;-97.118;2023-06-26T11:48:00;7.40;;;4.47;;
17773;SDS011;9011;33.236;-97.118;2023-06-26T11:50:29;16.63;;;5.78;;
17773;SDS011;9011;33.236;-97.118;2023-06-26T11:52:57;12.88;;;5.88;;
17773;SDS011;9011;33.236;-97.118;2023-06-26T11:55:27;12.93;;;5.35;;
17773;SDS011;9011;33.236;-97.118;2023-06-26T11:58:07;6.95;;;4.68;;
17773;SDS011;9011;33.236;-97.118;2023-06-26T12:00:41;5.10;;;4.15;;
17773;SDS011;9011;33.236;-97.118;2023-06-26T12:03:10;7.80;;;4.53;;
17773;SDS011;9011;33.236;-97.118;2023-06-26T12:05:39;8.50;;;4.93;;
17773;SDS011;9011;33.236;-97.118;2023-06-26T12:08:10;7.88;;;4.72;;
17773;SDS011;9011;33.236;-97.118;2023-06-26T12:10:39;8.40;;;4.85;;
17773;SDS011;9011;33.236;-97.118;2023-06-26T12:13:08;4.93;;;3.97;;
17773;SDS011;9011;33.236;-97.118;2023-06-26T12:15:36;6.80;;;4.30;;
17773;SDS011;9011;33.236;-97.118;2023-06-26T12:18:09;5.95;;;3.80;;
17773;SDS011;9011;33.236;-97.118;2023-06-26T12:20:39;8.18;;;4.50;;
17773;SDS011;9011;33.236;-97.118;2023-06-26T12:23:11;10.30;;;4.72;;
17773;SDS011;9011;33.236;-97.118;2023-06-26T12:25:40;8.52;;;4.05;;
17773;SDS011;9011;33.236;-97.118;2023-06-26T12:28:16;13.18;;;4.22;;
17773;SDS011;9011;33.236;-97.118;2023-06-26T12:31:09;10.95;;;4.60;;
17773;SDS011;9011;33.236;-97.118;2023-06-26T12:33:41;7.45;;;4.10;;
17773;SDS011;9011;33.236;-97.118;2023-06-26T12:36:11;7.93;;;4.03;;
17773;SDS011;9011;33.236;-97.118;2023-06-26T12:38:40;12.10;;;4.28;;
17773;SDS011;9011;33.236;-97.118;2023-06-26T12:41:12;9.55;;;3.53;;
17773;SDS011;9011;33.236;-97.118;2023-06-26T12:43:41;10.20;;;4.32;;
17773;SDS011;9011;33.236;-97.118;2023-06-26T12:46:09;5.75;;;3.88;;
17773;SDS011;9011;33.236;-97.118;2023-06-26T12:48:38;7.82;;;3.92;;
17773;SDS011;9011;33.236;-97.118;2023-06-26T12:51:12;5.70;;;3.40;;
17773;SDS011;9011;33.236;-97.118;2023-06-26T12:53:42;10.05;;;4.55;;
17773;SDS011;9011;33.236;-97.118;2023-06-26T12:56:10;7.70;;;3.70;;
17773;SDS011;9011;33.236;-97.118;2023-06-26T12:58:39;6.35;;;3.13;;
17773;SDS011;9011;33.236;-97.118;2023-06-26T13:01:07;8.88;;;3.75;;
17773;SDS011;9011;33.236;-97.118;2023-06-26T13:03:41;13.77;;;3.72;;
17773;SDS011;9011;33.236;-97.118;2023-06-26T13:06:10;6.70;;;3.22;;
17773;SDS011;9011;33.236;-97.118;2023-06-26T13:08:40;7.22;;;3.55;;
17773;SDS011;9011;33.236;-97.118;2023-06-26T13:11:08;7.50;;;3.33;;
17773;SDS011;9011;33.236;-97.118;2023-06-26T13:13:37;6.35;;;3.30;;
17773;SDS011;9011;33.236;-97.118;2023-06-26T13:16:05;6.45;;;3.08;;
17773;SDS011;9011;33.236;-97.118;2023-06-26T13:18:34;6.55;;;3.42;;
17773;SDS011;9011;33.236;-97.118;2023-06-26T13:21:04;9.57;;;3.30;;
17773;SDS011;9011;33.236;-97.118;2023-06-26T13:23:32;5.50;;;3.30;;
17773;SDS011;9011;33.236;-97.118;2023-06-26T13:26:00;6.13;;;3.38;;
17773;SDS011;9011;33.236;-97.118;2023-06-26T13:28:29;7.93;;;3.05;;
17773;SDS011;9011;33.236;-97.118;2023-06-26T13:30:58;8.98;;;3.67;;
17773;SDS011;9011;33.236;-97.118;2023-06-26T13:33:26;5.00;;;2.80;;
17773;SDS011;9011;33.236;-97.118;2023-06-26T13:35:55;4.93;;;2.60;;
17773;SDS011;9011;33.236;-97.118;2023-06-26T13:38:25;7.80;;;3.28;;
17773;SDS011;9011;33.236;-97.118;2023-06-26T13:40:54;7.13;;;3.25;;
17773;SDS011;9011;33.236;-97.118;2023-06-26T13:43:25;7.50;;;3.00;;
17773;SDS011;9011;33.236;-97.118;2023-06-26T13:45:53;9.73;;;3.22;;
17773;SDS011;9011;33.236;-97.118;2023-06-26T13:48:23;6.78;;;3.22;;
17773;SDS011;9011;33.236;-97.118;2023-06-26T13:50:51;7.18;;;2.65;;
17773;SDS011;9011;33.236;-97.118;2023-06-26T13:53:20;5.80;;;2.97;;
17773;SDS011;9011;33.236;-97.118;2023-06-26T13:55:50;6.32;;;3.15;;
17773;SDS011;9011;33.236;-97.118;2023-06-26T13:58:18;5.70;;;3.05;;
17773;SDS011;9011;33.236;-97.118;2023-06-26T14:00:48;4.60;;;2.78;;
17773;SDS011;9011;33.236;-97.118;2023-06-26T14:03:16;8.02;;;2.67;;
17773;SDS011;9011;33.236;-97.118;2023-06-26T14:05:44;6.05;;;3.03;;
17773;SDS011;9011;33.236;-97.118;2023-06-26T14:08:13;5.95;;;3.08;;
17773;SDS011;9011;33.236;-97.118;2023-06-26T14:10:41;5.55;;;2.53;;
17773;SDS011;9011;33.236;-97.118;2023-06-26T14:13:11;5.03;;;3.35;;
17773;SDS011;9011;33.236;-97.118;2023-06-26T14:15:41;4.75;;;2.47;;
17773;SDS011;9011;33.236;-97.118;2023-06-26T14:18:09;6.72;;;3.08;;
17773;SDS011;9011;33.236;-97.118;2023-06-26T14:20:38;6.70;;;3.28;;
17773;SDS011;9011;33.236;-97.118;2023-06-26T14:23:07;8.75;;;3.00;;
17773;SDS011;9011;33.236;-97.118;2023-06-26T14:25:35;4.40;;;2.65;;
17773;SDS011;9011;33.236;-97.118;2023-06-26T14:28:04;8.18;;;3.15;;
17773;SDS011;9011;33.236;-97.118;2023-06-26T14:30:34;5.68;;;2.75;;
17773;SDS011;9011;33.236;-97.118;2023-06-26T14:33:02;4.13;;;2.85;;
17773;SDS011;9011;33.236;-97.118;2023-06-26T14:35:31;6.07;;;3.15;;
17773;SDS011;9011;33.236;-97.118;2023-06-26T14:37:59;5.25;;;2.85;;
17773;SDS011;9011;33.236;-97.118;2023-06-26T14:40:28;6.72;;;3.05;;
17773;SDS011;9011;33.236;-97.118;2023-06-26T14:42:56;11.48;;;3.33;;
17773;SDS011;9011;33.236;-97.118;2023-06-26T14:45:25;6.53;;;3.15;;
17773;SDS011;9011;33.236;-97.118;2023-06-26T14:47:55;4.65;;;2.72;;
17773;SDS011;9011;33.236;-97.118;2023-06-26T14:50:23;5.38;;;2.72;;